createdAt,value
2018-07-16T00:00:28.920Z,14.13
2018-07-16T00:02:57.483Z,17.13
2018-07-16T00:05:26.002Z,15.07
2018-07-16T00:07:54.598Z,14.60
2018-07-16T00:10:23.150Z,14.47
2018-07-16T00:12:51.779Z,15.83
2018-07-16T00:15:20.296Z,14.77
2018-07-16T00:17:48.800Z,17.07
2018-07-16T00:20:17.327Z,15.33
2018-07-16T00:22:45.867Z,13.80
2018-07-16T00:25:14.387Z,13.23
2018-07-16T00:27:42.920Z,14.17
2018-07-16T00:30:11.488Z,13.77
2018-07-16T00:32:40.235Z,13.73
2018-07-16T00:35:08.775Z,13.13
2018-07-16T00:37:37.336Z,13.70
2018-07-16T00:40:05.850Z,12.30
2018-07-16T00:42:34.439Z,12.80
2018-07-16T00:45:02.976Z,13.60
2018-07-16T00:47:31.551Z,13.07
2018-07-16T00:50:00.070Z,13.93
2018-07-16T00:52:28.608Z,14.63
2018-07-16T00:54:57.121Z,15.03
2018-07-16T00:57:25.649Z,14.93
2018-07-16T00:59:54.186Z,13.83
2018-07-16T01:02:22.696Z,14.90
2018-07-16T01:04:51.232Z,14.67
2018-07-16T01:07:19.783Z,16.10
2018-07-16T01:09:48.326Z,14.00
2018-07-16T01:12:16.835Z,13.33
2018-07-16T01:14:45.378Z,14.13
2018-07-16T01:17:14.390Z,14.97
2018-07-16T01:19:42.909Z,15.93
2018-07-16T01:22:11.414Z,14.40
2018-07-16T01:24:39.936Z,15.23
2018-07-16T01:27:08.458Z,17.47
2018-07-16T01:29:36.655Z,17.83
2018-07-16T01:32:05.259Z,15.47
2018-07-16T01:34:33.765Z,14.87
2018-07-16T01:37:02.283Z,14.90
2018-07-16T01:39:30.822Z,15.27
2018-07-16T01:41:59.330Z,16.30
2018-07-16T01:44:27.847Z,16.07
2018-07-16T01:46:56.350Z,15.87
2018-07-16T01:49:24.890Z,15.93
2018-07-16T01:51:53.404Z,15.00
2018-07-16T01:54:21.966Z,14.93
2018-07-16T01:56:50.484Z,15.07
2018-07-16T01:59:19.047Z,15.67
2018-07-16T02:01:47.574Z,16.20
2018-07-16T02:04:16.122Z,15.17
2018-07-16T02:06:44.635Z,17.00
2018-07-16T02:09:13.167Z,16.00
2018-07-16T02:11:41.731Z,15.13
2018-07-16T02:14:10.267Z,13.13
2018-07-16T02:16:38.789Z,13.67
2018-07-16T02:19:07.311Z,13.83
2018-07-16T02:21:35.837Z,14.07
2018-07-16T02:24:04.389Z,14.70
2018-07-16T02:26:32.914Z,13.83
2018-07-16T02:29:01.451Z,14.87
2018-07-16T02:31:29.977Z,14.30
2018-07-16T02:33:58.512Z,15.23
2018-07-16T02:36:27.031Z,15.77
2018-07-16T02:38:56.072Z,14.57
2018-07-16T02:41:24.600Z,14.10
2018-07-16T02:43:53.124Z,16.03
2018-07-16T02:46:21.660Z,17.53
2018-07-16T02:48:50.222Z,16.00
2018-07-16T02:51:18.717Z,16.33
2018-07-16T02:53:47.275Z,15.17
2018-07-16T02:56:15.842Z,15.90
2018-07-16T02:58:44.308Z,15.30
2018-07-16T03:01:13.525Z,14.40
2018-07-16T03:03:42.054Z,15.27
2018-07-16T03:06:10.660Z,14.50
2018-07-16T03:08:39.206Z,16.57
2018-07-16T03:11:07.768Z,15.37
2018-07-16T03:13:36.287Z,15.77
2018-07-16T03:16:04.829Z,14.30
2018-07-16T03:18:33.335Z,14.33
2018-07-16T03:21:01.871Z,15.10
2018-07-16T03:23:30.380Z,14.07
2018-07-16T03:25:58.912Z,13.07
2018-07-16T03:28:27.435Z,13.00
2018-07-16T03:30:55.940Z,14.17
2018-07-16T03:33:24.454Z,12.73
2018-07-16T03:35:52.980Z,12.70
2018-07-16T03:38:21.572Z,11.83
2018-07-16T03:40:50.108Z,11.03
2018-07-16T03:43:18.625Z,10.07
2018-07-16T03:45:47.136Z,11.00
2018-07-16T03:48:15.632Z,10.90
2018-07-16T03:50:44.185Z,10.67
2018-07-16T03:53:13.076Z,11.57
2018-07-16T03:55:41.687Z,11.33
2018-07-16T03:58:10.185Z,11.37
2018-07-16T04:00:38.747Z,12.73
2018-07-16T04:03:07.276Z,12.07
2018-07-16T04:05:35.807Z,12.20
2018-07-16T04:08:04.352Z,12.53
2018-07-16T04:10:32.880Z,13.50
2018-07-16T04:13:01.393Z,13.37
2018-07-16T04:15:29.932Z,12.80
2018-07-16T04:17:58.467Z,13.23
2018-07-16T04:20:27.023Z,12.83
2018-07-16T04:22:55.784Z,13.60
2018-07-16T04:25:24.299Z,13.97
2018-07-16T04:27:52.802Z,12.40
2018-07-16T04:30:21.355Z,10.93
2018-07-16T04:32:49.852Z,11.60
2018-07-16T04:35:18.399Z,10.37
2018-07-16T04:37:47.210Z,9.97
2018-07-16T04:40:15.751Z,11.23
2018-07-16T04:42:44.304Z,10.03
2018-07-16T04:45:12.832Z,10.00
2018-07-16T04:47:41.363Z,10.20
2018-07-16T04:50:09.892Z,10.53
2018-07-16T04:52:38.700Z,10.23
2018-07-16T04:55:07.648Z,11.30
2018-07-16T04:57:36.380Z,10.83
2018-07-16T05:00:05.159Z,10.40
2018-07-16T05:02:33.711Z,10.43
2018-07-16T05:05:02.212Z,10.53
2018-07-16T05:07:31.139Z,9.63
2018-07-16T05:09:59.683Z,9.50
2018-07-16T05:12:28.272Z,9.80
2018-07-16T05:14:56.767Z,8.80
2018-07-16T05:17:25.328Z,10.43
2018-07-16T05:19:53.895Z,9.50
2018-07-16T05:22:22.458Z,9.28
2018-07-16T05:24:51.023Z,9.23
2018-07-16T05:27:20.054Z,9.40
2018-07-16T05:29:48.556Z,9.68
2018-07-16T05:32:17.104Z,8.75
2018-07-16T05:34:45.629Z,9.40
2018-07-16T05:37:14.159Z,9.63
2018-07-16T05:39:42.699Z,10.43
2018-07-16T05:42:11.272Z,10.23
2018-07-16T05:44:39.796Z,10.05
2018-07-16T05:47:08.320Z,10.32
2018-07-16T05:49:36.818Z,11.08
2018-07-16T05:52:05.327Z,11.65
2018-07-16T05:54:33.803Z,11.50
2018-07-16T05:57:02.324Z,11.60
2018-07-16T05:59:30.824Z,11.45
2018-07-16T06:01:59.772Z,12.20
2018-07-16T06:04:28.260Z,11.40
2018-07-16T06:06:56.786Z,12.37
2018-07-16T06:09:25.327Z,13.25
2018-07-16T06:11:53.899Z,11.57
2018-07-16T06:14:22.492Z,12.63
2018-07-16T06:16:51.137Z,12.58
2018-07-16T06:19:19.599Z,12.25
2018-07-16T06:21:48.180Z,12.23
2018-07-16T06:24:16.748Z,13.38
2018-07-16T06:26:45.240Z,12.68
2018-07-16T06:29:13.710Z,12.93
2018-07-16T06:31:42.272Z,13.62
2018-07-16T06:34:10.768Z,12.73
2018-07-16T06:36:39.283Z,12.70
2018-07-16T06:39:07.851Z,13.45
2018-07-16T06:41:36.772Z,12.43
2018-07-16T06:44:05.017Z,12.53
2018-07-16T06:46:33.551Z,13.40
2018-07-16T06:49:02.303Z,12.25
2018-07-16T06:51:30.826Z,12.85
2018-07-16T06:53:59.331Z,13.35
2018-07-16T06:56:27.839Z,14.03
2018-07-16T06:58:56.327Z,13.00
2018-07-16T07:01:24.827Z,14.00
2018-07-16T07:03:53.320Z,15.70
2018-07-16T07:06:21.863Z,14.85
2018-07-16T07:08:50.402Z,14.58
2018-07-16T07:11:18.907Z,14.18
2018-07-16T07:13:47.440Z,15.05
2018-07-16T07:16:15.942Z,15.78
2018-07-16T07:18:44.427Z,14.25
2018-07-16T07:21:12.933Z,14.23
2018-07-16T07:23:41.465Z,14.40
2018-07-16T07:26:09.983Z,15.13
2018-07-16T07:28:38.515Z,16.73
2018-07-16T07:31:07.032Z,15.05
2018-07-16T07:33:35.572Z,15.53
2018-07-16T07:36:04.241Z,16.42
2018-07-16T07:38:32.684Z,15.48
2018-07-16T07:41:01.189Z,14.65
2018-07-16T07:43:30.051Z,14.80
2018-07-16T07:45:58.534Z,16.57
2018-07-16T07:48:27.093Z,15.70
2018-07-16T07:50:55.555Z,16.12
2018-07-16T07:53:24.077Z,16.93
2018-07-16T07:55:52.625Z,16.73
2018-07-16T07:58:21.206Z,16.15
2018-07-16T08:00:50.139Z,17.02
2018-07-16T08:03:18.706Z,16.30
2018-07-16T08:05:52.547Z,15.48
2018-07-16T08:08:21.138Z,15.60
2018-07-16T08:10:49.627Z,15.10
2018-07-16T08:13:18.247Z,15.10
2018-07-16T08:15:46.763Z,14.40
2018-07-16T08:18:15.352Z,15.13
2018-07-16T08:20:43.843Z,14.98
2018-07-16T08:23:12.370Z,14.95
2018-07-16T08:25:40.916Z,13.95
2018-07-16T08:28:09.514Z,14.45
2018-07-16T08:30:38.063Z,14.60
2018-07-16T08:33:06.987Z,13.95
2018-07-16T08:35:35.512Z,13.55
2018-07-16T08:38:04.072Z,13.30
2018-07-16T08:40:32.654Z,12.80
2018-07-16T08:43:01.203Z,12.90
2018-07-16T08:45:29.728Z,11.60
2018-07-16T08:47:58.239Z,11.43
2018-07-16T08:50:26.766Z,11.30
2018-07-16T08:52:55.267Z,11.05
2018-07-16T08:55:23.804Z,12.15
2018-07-16T08:57:52.665Z,11.93
2018-07-16T09:00:21.217Z,11.40
2018-07-16T09:02:49.712Z,11.10
2018-07-16T09:05:18.252Z,10.55
2018-07-16T09:07:46.769Z,10.75
2018-07-16T09:10:15.302Z,10.78
2018-07-16T09:12:43.800Z,10.72
2018-07-16T09:15:12.335Z,11.25
2018-07-16T09:17:40.805Z,11.00
2018-07-16T09:20:09.289Z,10.90
2018-07-16T09:22:37.744Z,11.22
2018-07-16T09:25:06.311Z,11.03
2018-07-16T09:27:35.488Z,9.98
2018-07-16T09:30:04.669Z,9.90
2018-07-16T09:32:33.167Z,9.73
2018-07-16T09:35:01.683Z,9.55
2018-07-16T09:37:30.195Z,9.75
2018-07-16T09:39:58.709Z,8.10
2018-07-16T09:42:27.231Z,8.75
2018-07-16T09:44:55.755Z,9.23
2018-07-16T09:47:24.244Z,10.28
2018-07-16T09:49:52.767Z,9.33
2018-07-16T09:52:21.259Z,10.08
2018-07-16T09:54:59.956Z,8.73
2018-07-16T09:57:28.443Z,9.30
2018-07-16T09:59:56.960Z,9.38
2018-07-16T10:02:25.443Z,9.35
2018-07-16T10:04:53.958Z,8.18
2018-07-16T10:07:22.467Z,7.45
2018-07-16T10:09:50.971Z,7.95
2018-07-16T10:12:19.560Z,10.08
2018-07-16T10:14:48.087Z,9.33
2018-07-16T10:17:16.580Z,10.38
2018-07-16T10:19:45.091Z,11.80
2018-07-16T10:22:14.007Z,10.65
2018-07-16T10:24:42.532Z,9.85
2018-07-16T10:27:11.048Z,11.12
2018-07-16T10:29:39.566Z,10.43
2018-07-16T10:32:08.162Z,10.05
2018-07-16T10:34:36.661Z,11.08
2018-07-16T10:37:05.248Z,9.20
2018-07-16T10:39:33.747Z,9.83
2018-07-16T10:42:03.273Z,8.30
2018-07-16T10:44:31.772Z,10.03
2018-07-16T10:47:00.319Z,9.08
2018-07-16T10:49:28.827Z,10.63
2018-07-16T10:51:57.339Z,11.73
2018-07-16T10:54:25.570Z,10.60
2018-07-16T10:56:54.068Z,10.40
2018-07-16T10:59:22.575Z,9.63
2018-07-16T11:01:51.170Z,8.98
2018-07-16T11:04:19.711Z,9.35
2018-07-16T11:06:48.253Z,10.35
2018-07-16T11:09:17.051Z,8.63
2018-07-16T11:11:45.613Z,8.35
2018-07-16T11:14:14.437Z,8.20
2018-07-16T11:16:43.000Z,6.97
2018-07-16T11:19:11.489Z,7.25
2018-07-16T11:21:40.051Z,7.22
2018-07-16T11:24:08.596Z,8.40
2018-07-16T11:26:37.065Z,7.37
2018-07-16T11:29:05.555Z,5.97
2018-07-16T11:31:34.048Z,5.60
2018-07-16T11:34:02.555Z,4.87
2018-07-16T11:36:30.727Z,4.47
2018-07-16T11:38:59.228Z,4.65
2018-07-16T11:41:27.764Z,4.12
2018-07-16T11:43:56.241Z,3.55
2018-07-16T11:46:25.018Z,3.47
2018-07-16T11:48:53.495Z,3.83
2018-07-16T11:51:22.026Z,3.20
2018-07-16T11:53:50.530Z,3.60
2018-07-16T11:56:19.004Z,2.92
2018-07-16T11:58:47.531Z,3.20
2018-07-16T12:01:16.020Z,3.08
2018-07-16T12:03:44.512Z,5.30
2018-07-16T12:06:18.424Z,3.12
2018-07-16T12:08:47.118Z,3.20
2018-07-16T12:11:15.639Z,3.35
2018-07-16T12:13:44.133Z,2.65
2018-07-16T12:16:12.817Z,2.75
2018-07-16T12:18:41.343Z,2.80
2018-07-16T12:21:09.849Z,3.10
2018-07-16T12:23:38.321Z,3.17
2018-07-16T12:26:06.834Z,3.27
2018-07-16T12:28:35.405Z,3.22
2018-07-16T12:31:03.906Z,3.33
2018-07-16T12:33:32.431Z,3.55
2018-07-16T12:36:01.311Z,2.98
2018-07-16T12:38:29.832Z,3.22
2018-07-16T12:40:58.307Z,3.12
2018-07-16T12:43:26.795Z,2.77
2018-07-16T12:45:55.295Z,3.27
2018-07-16T12:48:23.798Z,3.02
2018-07-16T12:50:52.263Z,3.08
2018-07-16T12:53:20.764Z,4.12
2018-07-16T12:55:49.238Z,3.17
2018-07-16T12:58:17.758Z,4.20
2018-07-16T13:00:46.224Z,3.77
2018-07-16T13:03:14.727Z,3.95
2018-07-16T13:05:43.187Z,4.10
2018-07-16T13:08:11.763Z,3.60
2018-07-16T13:10:40.243Z,3.60
2018-07-16T13:13:08.714Z,3.90
2018-07-16T13:15:37.179Z,3.85
2018-07-16T13:18:05.715Z,4.40
2018-07-16T13:20:34.325Z,3.80
2018-07-16T13:23:02.837Z,3.25
2018-07-16T13:25:31.335Z,3.58
2018-07-16T13:27:59.849Z,3.47
2018-07-16T13:30:28.343Z,3.30
2018-07-16T13:32:56.850Z,3.52
2018-07-16T13:35:25.507Z,3.00
2018-07-16T13:37:54.056Z,2.45
2018-07-16T13:40:22.608Z,2.65
2018-07-16T13:42:51.147Z,2.70
2018-07-16T13:45:19.620Z,3.00
2018-07-16T13:47:48.272Z,3.55
2018-07-16T13:50:16.800Z,3.45
2018-07-16T13:52:45.349Z,3.35
2018-07-16T13:55:13.839Z,3.52
2018-07-16T13:57:42.360Z,2.90
2018-07-16T14:00:10.893Z,3.08
2018-07-16T14:02:39.395Z,2.80
2018-07-16T14:05:07.911Z,3.37
2018-07-16T14:07:36.423Z,2.72
2018-07-16T14:10:04.983Z,3.08
2018-07-16T14:12:34.317Z,2.87
2018-07-16T14:15:02.851Z,3.22
2018-07-16T14:17:31.339Z,3.17
2018-07-16T14:19:59.865Z,2.77
2018-07-16T14:22:28.344Z,2.75
2018-07-16T14:24:56.831Z,2.65
2018-07-16T14:27:25.328Z,2.80
2018-07-16T14:29:53.812Z,2.45
2018-07-16T14:32:22.291Z,2.67
2018-07-16T14:34:50.812Z,2.60
2018-07-16T14:37:19.299Z,2.77
2018-07-16T14:39:47.848Z,2.52
2018-07-16T14:42:16.355Z,5.08
2018-07-16T14:44:44.883Z,3.85
2018-07-16T14:47:13.398Z,1.98
2018-07-16T14:49:41.907Z,2.27
2018-07-16T14:52:10.388Z,2.25
2018-07-16T14:54:38.896Z,2.05
2018-07-16T14:57:07.498Z,2.45
2018-07-16T14:59:36.008Z,2.52
2018-07-16T15:02:04.556Z,2.60
2018-07-16T15:04:33.064Z,1.85
2018-07-16T15:07:01.530Z,1.95
2018-07-16T15:09:30.075Z,2.47
2018-07-16T15:11:58.592Z,1.87
2018-07-16T15:14:27.084Z,2.55
2018-07-16T15:16:55.580Z,2.58
2018-07-16T15:19:24.099Z,2.50
2018-07-16T15:21:52.697Z,3.33
2018-07-16T15:24:21.236Z,3.65
2018-07-16T15:26:49.743Z,3.37
2018-07-16T15:29:18.277Z,3.15
2018-07-16T15:31:46.793Z,2.98
2018-07-16T15:34:15.335Z,3.05
2018-07-16T15:36:43.847Z,3.52
2018-07-16T15:39:12.428Z,3.10
2018-07-16T15:41:40.936Z,3.08
2018-07-16T15:44:09.420Z,2.77
2018-07-16T15:46:37.945Z,3.12
2018-07-16T15:49:06.451Z,2.80
2018-07-16T15:51:34.967Z,3.05
2018-07-16T15:54:03.691Z,3.05
2018-07-16T15:56:32.205Z,2.90
2018-07-16T15:59:00.712Z,3.45
2018-07-16T16:01:29.275Z,3.02
2018-07-16T16:03:57.800Z,3.00
2018-07-16T16:06:26.315Z,3.22
2018-07-16T16:08:54.855Z,3.20
2018-07-16T16:11:23.360Z,3.27
2018-07-16T16:13:51.896Z,3.05
2018-07-16T16:16:20.490Z,2.72
2018-07-16T16:18:48.974Z,3.42
2018-07-16T16:21:17.488Z,3.15
2018-07-16T16:23:46.268Z,3.45
2018-07-16T16:26:14.917Z,3.17
2018-07-16T16:28:43.414Z,3.27
2018-07-16T16:31:12.479Z,3.33
2018-07-16T16:33:41.079Z,3.10
2018-07-16T16:36:09.620Z,3.20
2018-07-16T16:38:38.178Z,3.08
2018-07-16T16:41:08.377Z,3.60
2018-07-16T16:43:36.983Z,3.12
2018-07-16T16:46:05.579Z,3.27
2018-07-16T16:48:33.755Z,3.25
2018-07-16T16:51:02.343Z,3.37
2018-07-16T16:53:30.861Z,3.37
2018-07-16T16:55:59.520Z,3.95
2018-07-16T16:58:28.039Z,3.65
2018-07-16T17:00:56.521Z,3.58
2018-07-16T17:03:25.019Z,3.52
2018-07-16T17:05:53.531Z,3.50
2018-07-16T17:08:22.059Z,3.70
2018-07-16T17:10:50.575Z,3.58
2018-07-16T17:13:19.096Z,3.65
2018-07-16T17:15:47.636Z,3.30
2018-07-16T17:18:16.227Z,3.12
2018-07-16T17:20:44.430Z,3.02
2018-07-16T17:23:12.985Z,2.80
2018-07-16T17:25:41.532Z,2.77
2018-07-16T17:28:10.247Z,2.90
2018-07-16T17:30:38.792Z,2.90
2018-07-16T17:33:07.320Z,7.22
2018-07-16T17:35:35.812Z,3.08
2018-07-16T17:38:04.415Z,4.22
2018-07-16T17:40:34.080Z,3.05
2018-07-16T17:43:02.628Z,2.60
2018-07-16T17:45:31.928Z,2.80
2018-07-16T17:48:00.968Z,2.92
2018-07-16T17:50:29.751Z,2.40
2018-07-16T17:52:58.413Z,2.83
2018-07-16T17:55:27.211Z,3.00
2018-07-16T17:57:56.116Z,2.45
2018-07-16T18:00:25.312Z,2.83
2018-07-16T18:02:54.428Z,3.47
2018-07-16T18:05:23.427Z,3.10
2018-07-16T18:07:52.885Z,2.75
2018-07-16T18:10:21.642Z,2.98
2018-07-16T18:12:51.260Z,3.00
2018-07-16T18:15:20.428Z,2.95
2018-07-16T18:17:49.202Z,2.90
2018-07-16T18:20:18.615Z,2.90
2018-07-16T18:22:51.377Z,2.72
2018-07-16T18:25:20.200Z,2.98
2018-07-16T18:27:49.966Z,2.90
2018-07-16T18:30:19.307Z,2.60
2018-07-16T18:32:48.744Z,3.00
2018-07-16T18:35:17.714Z,3.22
2018-07-16T18:37:46.459Z,2.83
2018-07-16T18:40:15.580Z,2.72
2018-07-16T18:42:44.088Z,3.10
2018-07-16T18:45:14.075Z,2.67
2018-07-16T18:47:43.608Z,2.90
2018-07-16T18:50:12.777Z,2.72
2018-07-16T18:52:42.428Z,3.00
2018-07-16T18:55:11.617Z,2.95
2018-07-16T18:57:40.941Z,2.90
2018-07-16T19:00:10.431Z,2.85
2018-07-16T19:02:39.405Z,2.70
2018-07-16T19:05:08.610Z,2.77
2018-07-16T19:07:37.791Z,3.05
2018-07-16T19:10:06.766Z,2.65
2018-07-16T19:12:35.403Z,3.27
2018-07-16T19:15:10.591Z,3.08
2018-07-16T19:17:40.032Z,3.17
2018-07-16T19:20:08.801Z,2.98
2018-07-16T19:22:37.936Z,2.95
2018-07-16T19:25:06.486Z,3.08
2018-07-16T19:27:35.609Z,3.47
2018-07-16T19:30:06.005Z,4.33
2018-07-16T19:32:34.999Z,3.70
2018-07-16T19:35:04.499Z,3.40
2018-07-16T19:37:33.851Z,3.85
2018-07-16T19:40:03.833Z,3.50
2018-07-16T19:42:33.174Z,3.70
2018-07-16T19:45:02.305Z,3.10
2018-07-16T19:47:31.445Z,4.05
2018-07-16T19:50:00.001Z,3.85
2018-07-16T19:52:29.748Z,3.67
2018-07-16T19:54:58.982Z,3.70
2018-07-16T19:57:29.268Z,3.80
2018-07-16T19:59:58.979Z,4.28
2018-07-16T20:02:28.071Z,3.80
2018-07-16T20:04:56.669Z,3.85
2018-07-16T20:07:25.708Z,4.00
2018-07-16T20:09:54.549Z,4.22
2018-07-16T20:12:33.548Z,3.98
2018-07-16T20:15:03.373Z,4.45
2018-07-16T20:17:32.794Z,4.42
2018-07-16T20:20:02.199Z,4.58
2018-07-16T20:22:30.798Z,4.28
2018-07-16T20:24:59.889Z,3.98
2018-07-16T20:27:29.400Z,4.72
2018-07-16T20:29:57.992Z,4.90
2018-07-16T20:32:26.561Z,5.00
2018-07-16T20:34:55.392Z,4.70
2018-07-16T20:37:25.077Z,4.28
2018-07-16T20:39:54.503Z,4.65
2018-07-16T20:42:23.631Z,5.30
2018-07-16T20:44:52.177Z,4.83
2018-07-16T20:47:20.794Z,4.12
2018-07-16T20:49:49.877Z,4.17
2018-07-16T20:52:19.592Z,5.03
2018-07-16T20:54:48.787Z,4.78
2018-07-16T20:57:18.148Z,4.95
2018-07-16T20:59:46.903Z,5.40
2018-07-16T21:02:15.948Z,4.80
2018-07-16T21:04:45.574Z,5.00
2018-07-16T21:07:14.770Z,5.10
2018-07-16T21:09:43.387Z,5.27
2018-07-16T21:12:13.116Z,4.87
2018-07-16T21:14:42.004Z,5.10
2018-07-16T21:17:11.213Z,5.10
2018-07-16T21:19:40.154Z,6.43
2018-07-16T21:22:08.668Z,5.80
2018-07-16T21:24:38.951Z,6.00
2018-07-16T21:27:07.428Z,6.27
2018-07-16T21:29:36.128Z,5.93
2018-07-16T21:32:05.163Z,6.53
2018-07-16T21:34:34.903Z,6.60
2018-07-16T21:37:04.303Z,6.43
2018-07-16T21:39:33.142Z,7.37
2018-07-16T21:42:02.112Z,6.90
2018-07-16T21:44:31.744Z,7.33
2018-07-16T21:47:00.210Z,7.93
2018-07-16T21:49:28.701Z,6.50
2018-07-16T21:51:57.185Z,7.73
2018-07-16T21:54:25.693Z,7.80
2018-07-16T21:56:54.152Z,7.93
2018-07-16T21:59:22.658Z,7.20
2018-07-16T22:01:51.148Z,7.40
2018-07-16T22:04:19.652Z,7.73
2018-07-16T22:06:48.108Z,7.80
2018-07-16T22:09:16.308Z,7.73
2018-07-16T22:11:44.865Z,6.83
2018-07-16T22:14:13.046Z,7.13
2018-07-16T22:16:41.605Z,6.73
2018-07-16T22:19:10.075Z,6.17
2018-07-16T22:21:38.561Z,7.13
2018-07-16T22:24:07.607Z,7.33
2018-07-16T22:26:36.126Z,7.70
2018-07-16T22:29:04.647Z,6.87
2018-07-16T22:31:33.145Z,7.30
2018-07-16T22:34:01.670Z,6.90
2018-07-16T22:36:30.156Z,7.33
2018-07-16T22:38:58.616Z,7.60
2018-07-16T22:41:27.127Z,8.10
2018-07-16T22:43:55.641Z,7.77
2018-07-16T22:46:24.115Z,8.33
2018-07-16T22:48:52.582Z,9.07
2018-07-16T22:51:21.151Z,8.20
2018-07-16T22:53:49.592Z,7.77
2018-07-16T22:56:18.061Z,8.53
2018-07-16T22:58:46.520Z,8.60
2018-07-16T23:01:15.028Z,7.50
2018-07-16T23:03:43.479Z,8.70
2018-07-16T23:06:11.928Z,7.73
2018-07-16T23:08:40.366Z,7.93
2018-07-16T23:11:08.795Z,8.10
2018-07-16T23:13:37.211Z,7.83
2018-07-16T23:16:06.265Z,9.23
2018-07-16T23:18:34.683Z,7.67
2018-07-16T23:21:03.108Z,7.83
2018-07-16T23:23:31.510Z,8.03
2018-07-16T23:25:59.946Z,8.63
2018-07-16T23:28:28.360Z,8.73
2018-07-16T23:30:56.789Z,9.17
2018-07-16T23:33:25.215Z,8.90
2018-07-16T23:35:53.630Z,8.63
2018-07-16T23:38:22.064Z,8.13
2018-07-16T23:40:50.510Z,9.47
2018-07-16T23:43:18.930Z,9.53
2018-07-16T23:45:47.362Z,9.20
2018-07-16T23:48:15.776Z,9.17
2018-07-16T23:50:44.198Z,9.17
2018-07-16T23:53:12.616Z,8.53
2018-07-16T23:55:41.061Z,9.83
2018-07-16T23:58:09.507Z,9.00
